createdAt,value
2018-12-31T00:01:14.877Z,7.60
2018-12-31T00:03:56.202Z,7.60
2018-12-31T00:06:37.672Z,7.60
2018-12-31T00:09:18.336Z,7.60
2018-12-31T00:11:59.777Z,7.60
2018-12-31T00:14:41.105Z,7.60
2018-12-31T00:17:21.944Z,7.60
2018-12-31T00:20:02.917Z,7.60
2018-12-31T00:22:43.803Z,7.60
2018-12-31T00:25:25.048Z,7.60
2018-12-31T00:28:06.112Z,7.60
2018-12-31T00:30:47.291Z,7.60
2018-12-31T00:33:28.008Z,7.60
2018-12-31T00:36:08.737Z,7.60
2018-12-31T00:38:49.494Z,7.60
2018-12-31T00:41:30.364Z,7.70
2018-12-31T00:44:11.655Z,7.60
2018-12-31T00:46:52.397Z,7.70
2018-12-31T00:49:33.437Z,7.70
2018-12-31T00:52:14.204Z,7.70
2018-12-31T00:54:55.319Z,7.70
2018-12-31T00:57:36.509Z,7.70
2018-12-31T01:00:17.781Z,7.70
2018-12-31T01:02:58.486Z,7.70
2018-12-31T01:05:39.188Z,7.70
2018-12-31T01:08:20.196Z,7.60
2018-12-31T01:11:00.729Z,7.70
2018-12-31T01:13:41.363Z,7.70
2018-12-31T01:16:22.389Z,7.70
2018-12-31T01:19:03.426Z,7.70
2018-12-31T01:21:44.409Z,7.70
2018-12-31T01:24:25.040Z,7.70
2018-12-31T01:27:06.490Z,7.70
2018-12-31T01:29:47.162Z,7.70
2018-12-31T01:32:28.087Z,7.80
2018-12-31T01:35:08.628Z,7.80
2018-12-31T01:37:49.054Z,7.80
2018-12-31T01:40:29.764Z,7.80
2018-12-31T01:43:10.656Z,7.80
2018-12-31T01:45:51.368Z,7.70
2018-12-31T01:48:31.999Z,7.80
2018-12-31T01:51:12.952Z,7.80
2018-12-31T01:53:53.589Z,7.80
2018-12-31T01:56:34.195Z,7.80
2018-12-31T01:59:15.168Z,7.80
2018-12-31T02:01:55.828Z,7.80
2018-12-31T02:04:36.489Z,7.80
2018-12-31T02:07:17.353Z,7.80
2018-12-31T02:09:58.081Z,7.80
2018-12-31T02:12:38.816Z,7.80
2018-12-31T02:15:19.548Z,7.80
2018-12-31T02:18:00.735Z,7.80
2018-12-31T02:20:41.489Z,7.80
2018-12-31T02:23:22.560Z,7.80
2018-12-31T02:26:03.279Z,7.80
2018-12-31T02:28:44.609Z,7.80
2018-12-31T02:31:25.211Z,7.80
2018-12-31T02:34:06.260Z,7.80
2018-12-31T02:36:47.103Z,7.80
2018-12-31T02:39:27.889Z,7.80
2018-12-31T02:42:08.851Z,7.80
2018-12-31T02:44:49.585Z,7.80
2018-12-31T02:47:30.332Z,7.80
2018-12-31T02:50:11.243Z,7.80
2018-12-31T02:52:51.949Z,7.80
2018-12-31T02:55:32.967Z,7.80
2018-12-31T02:58:13.839Z,7.80
2018-12-31T03:00:54.405Z,7.80
2018-12-31T03:03:36.661Z,7.80
2018-12-31T03:06:17.457Z,7.80
2018-12-31T03:08:58.368Z,7.80
2018-12-31T03:11:39.299Z,7.80
2018-12-31T03:14:20.044Z,7.80
2018-12-31T03:17:00.728Z,7.80
2018-12-31T03:19:41.537Z,7.80
2018-12-31T03:22:22.687Z,7.80
2018-12-31T03:25:03.520Z,7.80
2018-12-31T03:27:44.208Z,7.80
2018-12-31T03:30:25.321Z,7.80
2018-12-31T03:33:05.972Z,7.80
2018-12-31T03:35:46.773Z,7.80
2018-12-31T03:38:26.069Z,7.80
2018-12-31T03:41:07.043Z,7.80
2018-12-31T03:43:47.845Z,7.80
2018-12-31T03:46:28.559Z,7.80
2018-12-31T03:49:09.345Z,7.80
2018-12-31T03:51:49.866Z,7.80
2018-12-31T03:54:31.244Z,7.80
2018-12-31T03:57:12.130Z,7.80
2018-12-31T03:59:52.691Z,7.80
2018-12-31T04:02:33.683Z,7.80
2018-12-31T04:05:14.124Z,7.80
2018-12-31T04:07:55.132Z,7.80
2018-12-31T04:10:36.297Z,7.80
2018-12-31T04:13:16.657Z,7.70
2018-12-31T04:15:57.675Z,7.80
2018-12-31T04:18:38.634Z,7.80
2018-12-31T04:21:19.264Z,7.80
2018-12-31T04:24:00.141Z,7.80
2018-12-31T04:26:41.028Z,7.80
2018-12-31T04:29:21.811Z,7.80
2018-12-31T04:32:02.400Z,7.80
2018-12-31T04:34:43.265Z,7.80
2018-12-31T04:37:24.024Z,7.80
2018-12-31T04:40:06.527Z,7.80
2018-12-31T04:42:47.633Z,7.80
2018-12-31T04:45:28.517Z,7.80
2018-12-31T04:48:09.141Z,7.80
2018-12-31T04:50:49.973Z,7.80
2018-12-31T04:53:30.989Z,7.80
2018-12-31T04:55:59.857Z,7.80
2018-12-31T04:58:47.972Z,7.80
2018-12-31T05:01:29.050Z,7.80
2018-12-31T05:03:57.883Z,7.80
2018-12-31T05:06:45.960Z,7.80
2018-12-31T05:09:14.766Z,7.80
2018-12-31T05:12:22.017Z,7.80
2018-12-31T05:15:02.589Z,7.80
2018-12-31T05:17:43.715Z,7.80
2018-12-31T05:20:24.539Z,7.80
2018-12-31T05:23:05.582Z,7.80
2018-12-31T05:25:46.134Z,7.80
2018-12-31T05:28:26.696Z,7.80
2018-12-31T05:31:07.549Z,7.80
2018-12-31T05:33:48.230Z,7.80
2018-12-31T05:36:29.413Z,7.70
2018-12-31T05:39:10.197Z,7.80
2018-12-31T05:41:51.268Z,7.80
2018-12-31T05:44:32.004Z,7.80
2018-12-31T05:47:13.178Z,7.80
2018-12-31T05:49:53.895Z,7.80
2018-12-31T05:52:34.782Z,7.80
2018-12-31T05:58:03.582Z,7.80
2018-12-31T06:00:44.872Z,7.80
2018-12-31T06:06:21.061Z,7.80
2018-12-31T06:09:02.113Z,7.80
2018-12-31T06:11:43.312Z,7.90
2018-12-31T06:14:24.389Z,7.90
2018-12-31T06:17:05.154Z,7.90
2018-12-31T06:19:53.344Z,7.90
2018-12-31T06:22:34.278Z,7.90
2018-12-31T06:25:15.156Z,7.80
2018-12-31T06:27:56.003Z,7.90
2018-12-31T06:30:36.787Z,7.90
2018-12-31T06:33:17.525Z,7.90
2018-12-31T06:35:58.405Z,7.90
2018-12-31T06:38:39.279Z,7.90
2018-12-31T06:41:08.130Z,7.90
2018-12-31T06:43:56.138Z,7.90
2018-12-31T06:46:36.437Z,7.90
2018-12-31T06:49:17.624Z,7.90
2018-12-31T06:51:58.770Z,7.90
2018-12-31T06:54:39.941Z,7.90
2018-12-31T06:57:20.849Z,7.90
2018-12-31T07:00:01.882Z,7.90
2018-12-31T07:02:42.609Z,7.90
2018-12-31T07:05:23.798Z,7.90
2018-12-31T07:08:04.522Z,7.90
2018-12-31T07:10:33.476Z,7.90
2018-12-31T07:16:15.419Z,8.00
2018-12-31T07:18:44.408Z,8.00
2018-12-31T07:21:13.279Z,8.00
2018-12-31T07:24:01.411Z,8.00
2018-12-31T07:26:49.747Z,8.00
2018-12-31T07:29:37.973Z,8.00
2018-12-31T07:32:26.019Z,8.00
2018-12-31T07:35:06.980Z,8.00
2018-12-31T07:37:47.686Z,8.00
2018-12-31T07:40:28.864Z,8.00
2018-12-31T07:43:09.769Z,8.00
2018-12-31T07:45:38.732Z,8.10
2018-12-31T07:48:07.815Z,8.10
2018-12-31T07:50:36.627Z,8.10
2018-12-31T07:53:05.491Z,8.10
2018-12-31T07:55:34.312Z,8.10
2018-12-31T07:58:03.287Z,8.10
2018-12-31T08:00:32.163Z,8.10
2018-12-31T08:03:01.007Z,8.10
2018-12-31T08:05:29.953Z,8.10
2018-12-31T08:07:58.790Z,8.10
2018-12-31T08:10:27.607Z,8.10
2018-12-31T08:12:56.443Z,8.10
2018-12-31T08:15:25.244Z,8.10
2018-12-31T08:17:54.075Z,8.10
2018-12-31T08:20:22.886Z,8.10
2018-12-31T08:22:51.784Z,8.10
2018-12-31T08:25:20.592Z,8.10
2018-12-31T08:27:51.376Z,8.10
2018-12-31T08:30:20.637Z,8.10
2018-12-31T08:32:49.459Z,8.10
2018-12-31T08:35:18.340Z,8.10
2018-12-31T08:37:47.201Z,8.20
2018-12-31T08:40:16.183Z,8.20
2018-12-31T08:42:45.016Z,8.20
2018-12-31T08:45:13.823Z,8.20
2018-12-31T08:47:42.677Z,8.20
2018-12-31T08:50:11.481Z,8.20
2018-12-31T08:52:40.385Z,8.20
2018-12-31T08:55:09.217Z,8.20
2018-12-31T08:57:38.051Z,8.20
2018-12-31T09:00:07.516Z,8.20
2018-12-31T09:02:36.435Z,8.20
2018-12-31T09:05:05.871Z,8.20
2018-12-31T09:07:35.788Z,8.20
2018-12-31T09:10:05.296Z,8.20
2018-12-31T09:12:34.456Z,8.20
2018-12-31T09:15:03.348Z,8.20
2018-12-31T09:17:32.235Z,8.20
2018-12-31T09:20:01.122Z,8.20
2018-12-31T09:22:29.968Z,8.20
2018-12-31T09:24:58.828Z,8.20
2018-12-31T09:27:27.647Z,8.20
2018-12-31T09:29:56.724Z,8.20
2018-12-31T09:32:25.616Z,8.20
2018-12-31T09:34:54.528Z,8.20
2018-12-31T09:37:23.368Z,8.20
2018-12-31T09:39:52.204Z,8.20
2018-12-31T09:42:21.115Z,8.30
2018-12-31T09:44:49.932Z,8.30
2018-12-31T09:47:18.819Z,8.30
2018-12-31T09:49:47.741Z,8.30
2018-12-31T09:52:16.573Z,8.30
2018-12-31T09:54:45.415Z,8.30
2018-12-31T09:57:14.228Z,8.30
2018-12-31T09:59:43.128Z,8.30
2018-12-31T10:02:12.011Z,8.30
2018-12-31T10:04:40.853Z,8.30
2018-12-31T10:07:09.752Z,8.30
2018-12-31T10:09:38.653Z,8.30
2018-12-31T10:12:07.484Z,8.30
2018-12-31T10:14:36.462Z,8.30
2018-12-31T10:17:05.279Z,8.30
2018-12-31T10:19:34.124Z,8.30
2018-12-31T10:22:03.019Z,8.30
2018-12-31T10:24:31.875Z,8.30
2018-12-31T10:27:00.824Z,8.30
2018-12-31T10:29:35.944Z,8.30
2018-12-31T10:32:00.259Z,8.30
2018-12-31T10:34:29.805Z,8.30
2018-12-31T10:36:58.683Z,8.30
2018-12-31T10:39:27.615Z,8.30
2018-12-31T10:41:56.529Z,8.30
2018-12-31T10:44:25.369Z,8.30
2018-12-31T10:46:54.316Z,8.40
2018-12-31T10:49:23.388Z,8.40
2018-12-31T10:51:52.418Z,8.40
2018-12-31T10:54:23.835Z,8.40
2018-12-31T10:56:52.692Z,8.40
2018-12-31T10:59:22.079Z,8.40
2018-12-31T11:01:51.147Z,8.40
2018-12-31T11:04:20.102Z,8.40
2018-12-31T11:06:48.914Z,8.40
2018-12-31T11:09:17.827Z,8.40
2018-12-31T11:11:46.640Z,8.40
2018-12-31T11:14:15.576Z,8.40
2018-12-31T11:16:44.461Z,8.40
2018-12-31T11:19:13.280Z,8.40
2018-12-31T11:21:42.197Z,8.40
2018-12-31T11:24:12.727Z,8.40
2018-12-31T11:26:41.881Z,8.40
2018-12-31T11:29:10.702Z,8.50
2018-12-31T11:31:39.614Z,8.50
2018-12-31T11:34:08.553Z,8.40
2018-12-31T11:36:38.054Z,8.40
2018-12-31T11:39:08.080Z,8.40
2018-12-31T11:41:58.160Z,8.40
2018-12-31T11:44:47.319Z,8.40
2018-12-31T11:47:27.956Z,8.40
2018-12-31T11:50:08.964Z,8.40
2018-12-31T11:52:49.457Z,8.40
2018-12-31T11:58:31.467Z,8.40
2018-12-31T12:01:15.192Z,8.40
2018-12-31T12:03:44.343Z,8.50
2018-12-31T12:06:32.469Z,8.50
2018-12-31T12:12:08.562Z,8.50
2018-12-31T12:14:37.748Z,8.50
2018-12-31T12:17:06.663Z,8.50
2018-12-31T12:19:35.514Z,8.50
2018-12-31T12:22:04.678Z,8.50
2018-12-31T12:24:33.732Z,8.50
2018-12-31T12:27:03.317Z,8.50
2018-12-31T12:29:32.396Z,8.50
2018-12-31T12:32:01.243Z,8.40
2018-12-31T12:34:30.133Z,8.40
2018-12-31T12:37:02.091Z,8.50
2018-12-31T12:39:30.940Z,8.50
2018-12-31T12:42:00.519Z,8.50
2018-12-31T12:44:29.336Z,8.50
2018-12-31T12:46:58.195Z,8.50
2018-12-31T12:49:27.004Z,8.50
2018-12-31T12:51:56.260Z,8.50
2018-12-31T12:54:25.086Z,8.50
2018-12-31T12:56:54.510Z,8.50
2018-12-31T12:59:23.776Z,8.50
2018-12-31T13:01:52.893Z,8.50
2018-12-31T13:04:22.597Z,8.50
2018-12-31T13:06:51.588Z,8.50
2018-12-31T13:09:20.537Z,8.50
2018-12-31T13:11:49.408Z,8.50
2018-12-31T13:14:18.221Z,8.50
2018-12-31T13:16:47.356Z,8.50
2018-12-31T13:19:16.170Z,8.50
2018-12-31T13:21:46.075Z,8.50
2018-12-31T13:24:15.620Z,8.50
2018-12-31T13:26:44.461Z,8.50
2018-12-31T13:29:13.566Z,8.50
2018-12-31T13:31:45.873Z,8.50
2018-12-31T13:34:14.812Z,8.50
2018-12-31T13:36:43.680Z,8.60
2018-12-31T13:39:12.781Z,8.50
2018-12-31T13:41:41.709Z,8.50
2018-12-31T13:44:10.529Z,8.50
2018-12-31T13:46:39.460Z,8.50
2018-12-31T13:49:08.468Z,8.50
2018-12-31T13:51:37.894Z,8.50
2018-12-31T13:54:07.031Z,8.50
2018-12-31T13:56:35.946Z,8.50
2018-12-31T13:59:04.925Z,8.50
2018-12-31T14:01:33.878Z,8.50
2018-12-31T14:04:03.173Z,8.50
2018-12-31T14:06:32.064Z,8.50
2018-12-31T14:09:00.876Z,8.50
2018-12-31T14:11:29.732Z,8.50
2018-12-31T14:13:58.550Z,8.50
2018-12-31T14:16:27.755Z,8.50
2018-12-31T14:18:56.573Z,8.50
2018-12-31T14:21:25.438Z,8.50
2018-12-31T14:23:54.688Z,8.50
2018-12-31T14:26:23.512Z,8.50
2018-12-31T14:28:52.537Z,8.50
2018-12-31T14:31:21.340Z,8.50
2018-12-31T14:33:50.343Z,8.50
2018-12-31T14:36:19.173Z,8.50
2018-12-31T14:38:48.174Z,8.50
2018-12-31T14:41:17.618Z,8.50
2018-12-31T14:43:46.950Z,8.50
2018-12-31T14:46:15.762Z,8.50
2018-12-31T14:48:44.626Z,8.50
2018-12-31T14:51:13.623Z,8.50
2018-12-31T14:53:42.816Z,8.50
2018-12-31T14:56:11.966Z,8.50
2018-12-31T14:58:40.839Z,8.50
2018-12-31T15:01:09.823Z,8.50
2018-12-31T15:03:38.652Z,8.50
2018-12-31T15:06:07.728Z,8.50
2018-12-31T15:08:36.572Z,8.50
2018-12-31T15:11:05.548Z,8.50
2018-12-31T15:13:34.464Z,8.50
2018-12-31T15:16:04.657Z,8.50
2018-12-31T15:18:33.643Z,8.50
2018-12-31T15:21:02.547Z,8.50
2018-12-31T15:23:31.522Z,8.50
2018-12-31T15:26:00.743Z,8.50
2018-12-31T15:28:29.994Z,8.50
2018-12-31T15:30:58.943Z,8.50
2018-12-31T15:33:29.009Z,8.50
2018-12-31T15:35:57.963Z,8.40
2018-12-31T15:38:26.832Z,8.40
2018-12-31T15:40:55.652Z,8.40
2018-12-31T15:43:24.575Z,8.40
2018-12-31T15:45:53.548Z,8.40
2018-12-31T15:48:22.529Z,8.40
2018-12-31T15:50:51.425Z,9.20
2018-12-31T15:53:20.482Z,8.40
2018-12-31T15:55:49.600Z,8.40
2018-12-31T15:58:18.476Z,8.40
2018-12-31T16:00:47.293Z,8.40
2018-12-31T16:03:16.200Z,8.40
2018-12-31T16:05:45.096Z,8.40
2018-12-31T16:08:14.219Z,8.40
2018-12-31T16:10:43.129Z,8.40
2018-12-31T16:13:11.973Z,8.40
2018-12-31T16:15:40.880Z,8.30
2018-12-31T16:18:09.714Z,8.30
2018-12-31T16:20:39.087Z,8.40
2018-12-31T16:23:08.179Z,8.30
2018-12-31T16:25:37.251Z,8.30
2018-12-31T16:28:07.350Z,8.30
2018-12-31T16:30:36.429Z,8.30
2018-12-31T16:33:05.835Z,8.30
2018-12-31T16:35:34.701Z,8.30
2018-12-31T16:38:03.721Z,8.30
2018-12-31T16:40:32.853Z,8.30
2018-12-31T16:43:01.953Z,8.30
2018-12-31T16:45:31.561Z,8.30
2018-12-31T16:48:00.372Z,8.30
2018-12-31T16:50:29.300Z,8.30
2018-12-31T16:52:58.120Z,8.30
2018-12-31T16:55:27.633Z,8.30
2018-12-31T16:57:57.354Z,8.20
2018-12-31T17:00:26.411Z,8.20
2018-12-31T17:02:55.652Z,8.20
2018-12-31T17:05:24.638Z,8.20
2018-12-31T17:07:54.804Z,8.20
2018-12-31T17:10:24.156Z,8.20
2018-12-31T17:12:53.469Z,8.20
2018-12-31T17:15:22.579Z,8.20
2018-12-31T17:17:51.408Z,8.20
2018-12-31T17:20:20.255Z,8.20
2018-12-31T17:22:49.792Z,8.20
2018-12-31T17:25:18.704Z,8.20
2018-12-31T17:27:47.643Z,8.20
2018-12-31T17:30:16.840Z,8.20
2018-12-31T17:32:46.009Z,8.20
2018-12-31T17:35:16.334Z,8.20
2018-12-31T17:37:45.235Z,8.20
2018-12-31T17:40:14.063Z,8.20
2018-12-31T17:42:42.896Z,8.20
2018-12-31T17:45:11.759Z,8.20
2018-12-31T17:47:40.580Z,8.20
2018-12-31T17:50:09.580Z,8.20
2018-12-31T17:52:38.386Z,8.20
2018-12-31T17:55:07.376Z,8.20
2018-12-31T17:57:36.197Z,8.20
2018-12-31T18:00:06.714Z,8.20
2018-12-31T18:02:35.779Z,8.20
2018-12-31T18:05:04.831Z,8.20
2018-12-31T18:07:33.670Z,8.20
2018-12-31T18:10:02.611Z,8.10
2018-12-31T18:12:31.448Z,8.10
2018-12-31T18:15:00.298Z,8.10
2018-12-31T18:17:29.096Z,8.10
2018-12-31T18:19:58.876Z,8.10
2018-12-31T18:22:27.836Z,8.10
2018-12-31T18:24:56.673Z,8.10
2018-12-31T18:27:25.488Z,8.10
2018-12-31T18:29:54.395Z,8.00
2018-12-31T18:32:23.448Z,8.00
2018-12-31T18:34:52.362Z,8.00
2018-12-31T18:37:21.247Z,8.00
2018-12-31T18:39:50.154Z,8.00
2018-12-31T18:42:18.973Z,8.00
2018-12-31T18:44:47.795Z,8.00
2018-12-31T18:47:16.621Z,8.00
2018-12-31T18:49:45.531Z,7.90
2018-12-31T18:52:14.356Z,7.90
2018-12-31T18:54:43.207Z,7.90
2018-12-31T18:57:12.096Z,7.90
2018-12-31T18:59:40.928Z,7.90
2018-12-31T19:02:09.735Z,7.90
2018-12-31T19:04:38.644Z,7.90
2018-12-31T19:07:07.454Z,7.90
2018-12-31T19:09:36.300Z,7.90
2018-12-31T19:12:05.276Z,7.80
2018-12-31T19:14:34.220Z,7.80
2018-12-31T19:17:03.400Z,7.80
2018-12-31T19:19:32.332Z,7.80
2018-12-31T19:22:01.142Z,7.80
2018-12-31T19:24:30.022Z,7.80
2018-12-31T19:26:58.858Z,7.80
2018-12-31T19:29:27.661Z,7.70
2018-12-31T19:31:57.311Z,7.70
2018-12-31T19:34:26.181Z,7.70
2018-12-31T19:36:55.528Z,7.70
2018-12-31T19:39:24.505Z,7.70
2018-12-31T19:41:53.345Z,7.70
2018-12-31T19:44:22.234Z,7.70
2018-12-31T19:46:51.144Z,7.70
2018-12-31T19:49:19.941Z,7.70
2018-12-31T19:51:49.023Z,7.70
2018-12-31T19:54:17.904Z,7.70
2018-12-31T19:56:46.747Z,7.00
2018-12-31T19:59:15.754Z,7.70
2018-12-31T20:01:44.604Z,7.70
2018-12-31T20:04:13.500Z,7.60
2018-12-31T20:06:42.775Z,7.60
2018-12-31T20:09:11.725Z,7.60
2018-12-31T20:11:41.290Z,7.60
2018-12-31T20:14:10.175Z,7.60
2018-12-31T20:16:39.116Z,7.60
2018-12-31T20:19:08.083Z,7.60
2018-12-31T20:21:37.053Z,7.60
2018-12-31T20:24:05.941Z,7.60
2018-12-31T20:26:34.788Z,7.60
2018-12-31T20:29:03.908Z,7.60
2018-12-31T20:31:32.751Z,7.60
2018-12-31T20:34:01.719Z,7.60
2018-12-31T20:36:30.745Z,7.60
2018-12-31T20:39:00.088Z,7.60
2018-12-31T20:41:28.929Z,7.60
2018-12-31T20:43:57.820Z,7.60
2018-12-31T20:46:27.188Z,7.60
2018-12-31T20:48:56.422Z,7.60
2018-12-31T20:51:25.705Z,7.60
2018-12-31T20:53:54.520Z,7.60
2018-12-31T20:56:23.339Z,7.60
2018-12-31T20:58:52.150Z,7.60
2018-12-31T21:01:20.988Z,7.60
2018-12-31T21:03:49.793Z,7.60
2018-12-31T21:06:18.645Z,7.60
2018-12-31T21:08:47.444Z,7.60
2018-12-31T21:11:16.612Z,7.60
2018-12-31T21:13:45.547Z,7.60
2018-12-31T21:16:14.480Z,7.60
2018-12-31T21:18:43.291Z,7.70
2018-12-31T21:21:12.288Z,7.70
2018-12-31T21:23:41.393Z,7.70
2018-12-31T21:26:10.318Z,7.70
2018-12-31T21:28:39.500Z,7.70
2018-12-31T21:31:08.384Z,7.70
2018-12-31T21:33:37.217Z,7.70
2018-12-31T21:36:06.392Z,7.70
2018-12-31T21:38:35.387Z,7.70
2018-12-31T21:41:04.644Z,7.70
2018-12-31T21:43:33.710Z,7.70
2018-12-31T21:46:02.675Z,7.70
2018-12-31T21:48:31.866Z,7.70
2018-12-31T21:51:02.139Z,7.70
2018-12-31T21:53:31.046Z,7.70
2018-12-31T21:56:00.007Z,7.70
2018-12-31T21:58:28.843Z,7.70
2018-12-31T22:00:57.732Z,7.70
2018-12-31T22:03:26.593Z,7.70
2018-12-31T22:05:55.406Z,7.70
2018-12-31T22:08:24.319Z,7.70
2018-12-31T22:10:53.128Z,7.60
2018-12-31T22:13:21.967Z,7.60
2018-12-31T22:15:50.798Z,7.60
2018-12-31T22:18:19.664Z,7.60
2018-12-31T22:20:48.920Z,7.60
2018-12-31T22:23:17.848Z,7.60
2018-12-31T22:25:46.655Z,7.60
2018-12-31T22:28:15.572Z,7.60
2018-12-31T22:30:44.464Z,7.60
2018-12-31T22:33:13.743Z,7.60
2018-12-31T22:35:42.632Z,7.60
2018-12-31T22:38:11.620Z,7.60
2018-12-31T22:40:40.436Z,7.60
2018-12-31T22:43:09.478Z,7.60
2018-12-31T22:45:38.444Z,7.60
2018-12-31T22:48:07.636Z,7.60
2018-12-31T22:50:36.521Z,7.60
2018-12-31T22:53:05.432Z,7.60
2018-12-31T22:55:34.319Z,7.50
2018-12-31T22:58:03.135Z,7.50
2018-12-31T23:00:32.893Z,7.50
2018-12-31T23:03:01.800Z,7.50
2018-12-31T23:05:34.037Z,7.50
2018-12-31T23:08:02.954Z,7.50
2018-12-31T23:10:32.219Z,7.50
2018-12-31T23:13:01.076Z,7.50
2018-12-31T23:15:30.911Z,7.50
2018-12-31T23:18:00.319Z,7.50
2018-12-31T23:20:29.146Z,7.50
2018-12-31T23:22:58.434Z,7.50
2018-12-31T23:25:28.220Z,7.50
2018-12-31T23:27:57.300Z,7.50
2018-12-31T23:30:26.192Z,7.50
2018-12-31T23:33:14.233Z,7.50
2018-12-31T23:35:54.645Z,7.50
2018-12-31T23:38:44.608Z,7.50
2018-12-31T23:41:32.874Z,7.50
2018-12-31T23:44:12.072Z,7.50
2018-12-31T23:47:00.635Z,7.50
2018-12-31T23:49:41.605Z,7.50
2018-12-31T23:52:22.607Z,7.50
2018-12-31T23:55:03.480Z,7.40
2018-12-31T23:57:44.187Z,7.40
